Time;durP1;ratioP1;P1;durP2;ratioP2;P2;SDS_P1;SDS_P2;PMS_P1;PMS_P2;Temp;Humidity;BMP_temperature;BMP_pressure;BME280_temperature;BME280_humidity;BME280_pressure;Samples;Min_cycle;Max_cycle;Signal;HPM_P1;HPM_P2
2023/10/22 00:01:18;;;;;;;4.10;0.88;;;12.50;99.90;;;;;;5113393;28;20059;-68
2023/10/22 00:03:44;;;;;;;2.92;0.90;;;12.50;99.90;;;;;;5103966;28;20035;-68
2023/10/22 00:06:10;;;;;;;2.00;0.80;;;12.60;99.90;;;;;;5112356;28;20039;-69
2023/10/22 00:08:35;;;;;;;3.33;0.90;;;12.60;99.90;;;;;;5122245;28;20054;-68
2023/10/22 00:11:01;;;;;;;3.40;1.00;;;12.60;99.90;;;;;;5121820;28;20048;-65
2023/10/22 00:13:27;;;;;;;2.85;0.70;;;12.60;99.90;;;;;;5121726;28;20048;-65
2023/10/22 00:15:52;;;;;;;3.08;0.80;;;12.70;99.90;;;;;;5104815;28;20048;-65
2023/10/22 00:18:18;;;;;;;1.40;0.70;;;12.70;99.90;;;;;;5103467;28;20069;-65
2023/10/22 00:20:44;;;;;;;2.30;0.70;;;12.70;99.90;;;;;;5113249;28;20078;-65
2023/10/22 00:23:10;;;;;;;4.03;0.77;;;12.80;99.90;;;;;;5119557;28;20039;-65
2023/10/22 00:25:36;;;;;;;2.05;0.68;;;12.80;99.90;;;;;;5096568;28;20044;-65
2023/10/22 00:28:03;;;;;;;1.80;0.80;;;12.80;99.90;;;;;;5120565;28;20044;-66
2023/10/22 00:30:30;;;;;;;2.15;0.80;;;12.90;99.90;;;;;;5108597;28;20047;-65
2023/10/22 00:32:56;;;;;;;1.65;0.90;;;12.90;99.90;;;;;;5122265;28;20126;-66
2023/10/22 00:35:22;;;;;;;1.83;0.60;;;13.00;99.90;;;;;;5106535;28;20228;-66
2023/10/22 00:37:48;;;;;;;3.67;1.00;;;13.00;99.90;;;;;;5089641;28;20548;-65
2023/10/22 00:40:14;;;;;;;3.45;1.00;;;13.10;99.90;;;;;;5117512;28;20118;-65
2023/10/22 00:42:40;;;;;;;2.45;0.75;;;13.10;99.90;;;;;;5122080;28;20075;-65
2023/10/22 00:45:07;;;;;;;2.38;0.70;;;13.10;99.90;;;;;;5121635;28;20443;-66
2023/10/22 00:47:33;;;;;;;3.60;0.88;;;13.10;99.90;;;;;;5121706;28;20075;-66
2023/10/22 00:49:59;;;;;;;2.65;0.70;;;13.20;99.90;;;;;;5097355;28;20077;-66
2023/10/22 00:52:26;;;;;;;2.55;0.77;;;13.20;99.90;;;;;;5120606;28;20040;-66
2023/10/22 00:54:53;;;;;;;2.30;0.80;;;13.20;99.90;;;;;;5122649;28;20122;-66
2023/10/22 00:57:20;;;;;;;2.50;0.85;;;13.20;99.90;;;;;;5106483;28;20044;-65
2023/10/22 00:59:46;;;;;;;3.17;0.80;;;13.20;99.90;;;;;;5122243;28;20048;-65
2023/10/22 01:02:12;;;;;;;3.40;0.98;;;13.20;99.90;;;;;;5121452;28;20042;-65
2023/10/22 01:04:38;;;;;;;2.40;0.70;;;13.30;99.90;;;;;;5106356;28;20040;-66
2023/10/22 01:07:05;;;;;;;2.05;0.70;;;13.30;99.90;;;;;;5122243;28;20044;-65
2023/10/22 01:09:31;;;;;;;2.10;0.60;;;13.30;99.90;;;;;;5119364;28;20047;-65
2023/10/22 01:12:04;;;;;;;2.13;0.70;;;13.30;99.90;;;;;;5122840;28;20038;-66
2023/10/22 01:14:30;;;;;;;2.33;0.70;;;13.30;99.90;;;;;;5121002;28;20056;-66
2023/10/22 01:16:57;;;;;;;2.00;1.05;;;13.30;99.90;;;;;;5121919;28;20391;-66
2023/10/22 01:19:23;;;;;;;3.25;0.90;;;13.30;99.90;;;;;;5121068;28;20079;-66
2023/10/22 01:21:49;;;;;;;3.63;0.85;;;13.30;99.90;;;;;;5121256;28;20034;-66
2023/10/22 01:24:15;;;;;;;3.17;0.80;;;13.30;99.90;;;;;;5122242;28;20036;-69
2023/10/22 01:26:41;;;;;;;3.40;0.77;;;13.30;99.90;;;;;;5119451;28;20091;-70
2023/10/22 01:29:07;;;;;;;2.30;0.88;;;13.30;99.90;;;;;;5103966;28;20047;-68
2023/10/22 01:31:33;;;;;;;2.53;0.95;;;13.30;99.90;;;;;;5119622;28;20044;-68
2023/10/22 01:33:59;;;;;;;2.75;1.05;;;13.30;99.90;;;;;;5122377;28;20440;-68
2023/10/22 01:36:25;;;;;;;2.10;0.60;;;13.30;99.90;;;;;;5102720;28;20036;-68
2023/10/22 01:38:51;;;;;;;1.70;0.52;;;13.20;99.90;;;;;;5128617;28;20031;-69
2023/10/22 01:41:16;;;;;;;2.67;0.70;;;13.20;99.90;;;;;;5122187;28;20063;-69
2023/10/22 01:43:42;;;;;;;1.45;0.60;;;13.20;99.90;;;;;;5120472;28;20123;-69
2023/10/22 01:46:08;;;;;;;2.80;0.60;;;13.10;99.90;;;;;;5122169;28;20043;-70
2023/10/22 01:48:33;;;;;;;1.85;0.63;;;13.10;99.90;;;;;;5105771;28;20073;-69
2023/10/22 01:50:59;;;;;;;3.53;0.82;;;12.90;99.90;;;;;;5115288;28;20032;-68
2023/10/22 01:53:25;;;;;;;3.60;0.80;;;12.90;99.90;;;;;;5121608;28;20126;-69
2023/10/22 01:55:50;;;;;;;3.15;0.85;;;12.80;99.90;;;;;;5124906;28;20036;-69
2023/10/22 01:58:16;;;;;;;2.22;0.68;;;12.70;99.90;;;;;;5103495;28;20519;-68
2023/10/22 02:00:42;;;;;;;1.55;0.73;;;12.70;99.90;;;;;;5116574;27;20128;-70
2023/10/22 02:03:08;;;;;;;1.67;0.70;;;12.60;99.90;;;;;;5124065;28;20032;-69
2023/10/22 02:05:34;;;;;;;2.70;0.75;;;12.50;99.90;;;;;;5122117;28;20027;-68
2023/10/22 02:08:01;;;;;;;3.03;0.88;;;12.50;99.90;;;;;;5125704;28;20053;-69
2023/10/22 02:10:27;;;;;;;2.92;0.63;;;12.50;99.90;;;;;;5115345;28;20117;-67
2023/10/22 02:12:53;;;;;;;2.20;0.65;;;12.50;99.90;;;;;;5106503;28;20031;-68
2023/10/22 02:15:18;;;;;;;1.40;0.70;;;12.50;99.90;;;;;;5113273;28;20042;-68
2023/10/22 02:17:44;;;;;;;2.30;0.68;;;12.50;99.90;;;;;;5123991;28;20054;-69
2023/10/22 02:20:10;;;;;;;2.42;0.70;;;12.60;99.90;;;;;;5125261;28;20032;-69
2023/10/22 02:22:39;;;;;;;1.85;0.70;;;12.60;99.90;;;;;;5087660;28;20526;-69
2023/10/22 02:25:06;;;;;;;4.60;0.70;;;12.60;99.90;;;;;;5106967;28;20050;-69
2023/10/22 02:27:32;;;;;;;2.47;0.60;;;12.60;99.90;;;;;;5105316;28;20085;-69
2023/10/22 02:29:58;;;;;;;2.67;0.65;;;12.60;99.90;;;;;;5123915;28;20082;-69
2023/10/22 02:32:23;;;;;;;2.00;0.82;;;12.60;99.90;;;;;;5124401;28;20048;-69
2023/10/22 02:34:52;;;;;;;1.65;0.60;;;12.60;99.90;;;;;;5084559;28;20051;-69
2023/10/22 02:37:19;;;;;;;2.45;0.65;;;12.70;99.90;;;;;;5103961;28;20107;-68
2023/10/22 02:39:45;;;;;;;1.50;0.60;;;12.60;99.90;;;;;;5123193;28;20060;-68
2023/10/22 02:42:11;;;;;;;2.15;0.70;;;12.60;99.90;;;;;;5125204;28;20155;-69
2023/10/22 02:44:36;;;;;;;1.52;0.65;;;12.60;99.90;;;;;;5123622;28;20395;-69
2023/10/22 02:47:02;;;;;;;1.80;0.60;;;12.50;99.90;;;;;;5124173;28;20126;-68
2023/10/22 02:49:29;;;;;;;1.95;0.80;;;12.50;99.90;;;;;;5108214;28;20047;-68
2023/10/22 02:51:55;;;;;;;2.17;0.70;;;12.60;99.90;;;;;;5105143;28;20063;-69
2023/10/22 02:54:21;;;;;;;1.60;0.60;;;12.50;99.90;;;;;;5115093;28;20039;-68
2023/10/22 02:56:47;;;;;;;1.50;0.70;;;12.50;99.90;;;;;;5116004;28;20121;-68
2023/10/22 02:59:14;;;;;;;1.30;0.60;;;12.50;99.90;;;;;;5099690;28;20073;-69
2023/10/22 03:01:40;;;;;;;1.77;0.68;;;12.60;99.90;;;;;;5103767;28;20093;-69
2023/10/22 03:04:05;;;;;;;3.00;0.88;;;12.60;99.90;;;;;;5123985;28;20047;-68
2023/10/22 03:06:31;;;;;;;3.15;0.93;;;12.60;99.90;;;;;;5102273;28;20091;-69
2023/10/22 03:08:57;;;;;;;3.85;0.68;;;12.60;99.90;;;;;;5115710;28;20044;-68
2023/10/22 03:11:23;;;;;;;2.30;0.80;;;12.70;99.90;;;;;;5123679;28;20517;-69
2023/10/22 03:13:50;;;;;;;2.92;1.00;;;12.70;99.90;;;;;;5120618;28;20044;-69
2023/10/22 03:16:17;;;;;;;1.70;0.70;;;12.70;99.90;;;;;;5105972;28;20074;-68
2023/10/22 03:18:45;;;;;;;3.13;0.60;;;12.70;99.90;;;;;;5122218;28;20047;-68
2023/10/22 03:21:28;;;;;;;3.17;1.30;;;12.70;99.90;;;;;;5105473;28;20043;-68
2023/10/22 03:23:53;;;;;;;1.00;0.60;;;12.70;99.90;;;;;;5123097;28;20051;-67
2023/10/22 03:26:19;;;;;;;4.22;0.70;;;12.70;99.90;;;;;;5128195;27;20039;-68
2023/10/22 03:28:46;;;;;;;2.25;1.20;;;12.70;99.90;;;;;;5113958;28;20031;-68
2023/10/22 03:31:13;;;;;;;2.22;0.70;;;12.70;99.90;;;;;;5106876;28;20080;-68
2023/10/22 03:33:39;;;;;;;2.22;0.70;;;12.70;99.90;;;;;;5123119;28;20127;-69
2023/10/22 03:36:05;;;;;;;2.15;0.70;;;12.70;99.90;;;;;;5105166;28;20043;-69
2023/10/22 03:38:31;;;;;;;2.17;0.70;;;12.80;99.90;;;;;;5122027;28;20065;-68
2023/10/22 03:41:02;;;;;;;2.25;0.70;;;12.80;99.90;;;;;;5123526;28;20039;-68
2023/10/22 03:43:28;;;;;;;2.00;0.80;;;12.70;99.90;;;;;;5121399;28;20120;-68
2023/10/22 03:45:55;;;;;;;2.08;0.80;;;12.60;99.90;;;;;;5123917;28;20532;-68
2023/10/22 03:48:25;;;;;;;2.20;0.80;;;12.60;99.90;;;;;;5121420;28;20043;-68
2023/10/22 03:50:51;;;;;;;2.03;0.80;;;12.50;99.90;;;;;;5106731;28;20040;-68
2023/10/22 03:53:18;;;;;;;2.53;0.77;;;12.50;99.90;;;;;;5084540;28;20498;-68
2023/10/22 03:55:43;;;;;;;2.28;0.60;;;12.50;99.90;;;;;;5104984;28;20075;-69
2023/10/22 03:58:09;;;;;;;3.75;0.93;;;12.50;99.90;;;;;;5104431;28;20070;-66
2023/10/22 04:00:35;;;;;;;2.15;0.80;;;12.40;99.90;;;;;;5100374;28;20501;-69
2023/10/22 04:03:01;;;;;;;3.13;1.63;;;12.40;99.90;;;;;;5095918;28;20130;-68
2023/10/22 04:05:27;;;;;;;1.95;0.85;;;12.40;99.90;;;;;;5109500;28;20052;-69
2023/10/22 04:07:53;;;;;;;2.25;0.80;;;12.30;99.90;;;;;;5105552;28;20036;-69
2023/10/22 04:10:19;;;;;;;2.60;0.88;;;12.30;99.90;;;;;;5102197;28;20050;-68
2023/10/22 04:12:45;;;;;;;1.95;0.63;;;12.20;99.90;;;;;;5122735;28;20100;-68
2023/10/22 04:15:11;;;;;;;2.03;0.80;;;12.20;99.90;;;;;;5123034;28;20389;-68
2023/10/22 04:17:37;;;;;;;2.30;0.90;;;12.30;99.90;;;;;;5121479;28;20072;-68
2023/10/22 04:20:03;;;;;;;4.55;1.10;;;12.20;99.90;;;;;;5107175;28;20056;-68
2023/10/22 04:22:29;;;;;;;2.88;0.98;;;12.20;99.90;;;;;;5094008;28;20060;-68
2023/10/22 04:24:55;;;;;;;2.03;1.00;;;12.20;99.90;;;;;;5121919;28;20064;-68
2023/10/22 04:27:21;;;;;;;4.05;0.90;;;12.10;99.90;;;;;;5116019;28;20112;-68
2023/10/22 04:29:46;;;;;;;2.10;0.80;;;12.10;99.90;;;;;;5103720;28;20062;-68
2023/10/22 04:32:13;;;;;;;2.72;0.85;;;12.10;99.90;;;;;;5121233;28;20101;-69
2023/10/22 04:34:40;;;;;;;2.85;1.00;;;12.00;99.90;;;;;;5121662;28;20051;-69
2023/10/22 04:37:07;;;;;;;3.33;0.90;;;12.00;99.90;;;;;;5122831;28;20039;-68
2023/10/22 04:39:32;;;;;;;2.60;0.95;;;12.00;99.90;;;;;;5120873;28;20052;-68
2023/10/22 04:41:58;;;;;;;2.85;1.10;;;12.10;99.90;;;;;;5103976;28;20039;-68
2023/10/22 04:44:24;;;;;;;2.85;0.95;;;12.10;99.90;;;;;;5121252;28;20046;-69
2023/10/22 04:46:51;;;;;;;1.15;0.73;;;12.00;99.90;;;;;;5101096;28;20043;-68
2023/10/22 04:49:17;;;;;;;2.42;0.93;;;12.00;99.90;;;;;;5085151;28;20058;-68
2023/10/22 04:51:43;;;;;;;1.83;1.00;;;12.00;99.90;;;;;;5121668;28;20050;-69
2023/10/22 04:54:09;;;;;;;1.80;1.00;;;12.00;99.90;;;;;;5122551;28;20095;-68
2023/10/22 04:56:35;;;;;;;2.10;0.95;;;12.00;99.90;;;;;;5120952;28;20491;-68
2023/10/22 04:59:00;;;;;;;1.77;0.80;;;12.00;99.90;;;;;;5122772;28;20095;-69
2023/10/22 05:01:26;;;;;;;2.47;1.25;;;12.00;99.90;;;;;;5120884;28;20035;-69
2023/10/22 05:03:52;;;;;;;1.92;1.00;;;11.90;99.90;;;;;;5122384;28;20040;-70
2023/10/22 05:06:18;;;;;;;3.00;1.00;;;12.00;99.90;;;;;;5120727;28;20079;-69
2023/10/22 05:08:44;;;;;;;2.03;1.10;;;12.00;99.90;;;;;;5104537;28;20043;-69
2023/10/22 05:11:16;;;;;;;1.95;0.90;;;12.00;99.90;;;;;;5101069;28;20048;-69
2023/10/22 05:13:43;;;;;;;2.55;1.25;;;12.00;99.90;;;;;;5120715;28;20074;-68
2023/10/22 05:16:10;;;;;;;2.50;0.90;;;12.00;99.90;;;;;;5117517;28;20069;-69
2023/10/22 05:18:37;;;;;;;1.92;0.90;;;12.00;99.90;;;;;;5102163;28;20071;-68
2023/10/22 05:21:07;;;;;;;2.25;1.13;;;12.00;99.90;;;;;;5122486;28;20092;-68
2023/10/22 05:23:34;;;;;;;2.10;1.10;;;12.00;99.90;;;;;;5103226;28;20048;-68
2023/10/22 05:26:08;;;;;;;1.83;1.02;;;11.90;99.90;;;;;;5121185;28;20048;-67
2023/10/22 05:28:34;;;;;;;2.22;1.10;;;12.00;99.90;;;;;;5123729;28;20039;-68
2023/10/22 05:31:00;;;;;;;2.63;1.20;;;12.00;99.90;;;;;;5120831;28;20483;-68
2023/10/22 05:33:26;;;;;;;1.90;1.20;;;12.00;99.90;;;;;;5104014;28;20040;-68
2023/10/22 05:35:52;;;;;;;2.00;1.20;;;11.90;99.90;;;;;;5102415;28;20031;-68
2023/10/22 05:38:18;;;;;;;2.83;1.20;;;12.00;99.90;;;;;;5126119;28;20057;-68
2023/10/22 05:40:43;;;;;;;1.60;0.90;;;12.00;99.90;;;;;;5112821;28;20067;-67
2023/10/22 05:43:09;;;;;;;2.22;1.00;;;11.90;99.90;;;;;;5124567;28;20042;-68
2023/10/22 05:45:35;;;;;;;1.85;1.05;;;11.90;99.90;;;;;;5124275;28;20065;-68
2023/10/22 05:48:01;;;;;;;2.10;1.00;;;11.80;99.90;;;;;;5124008;28;20093;-68
2023/10/22 05:50:26;;;;;;;2.33;1.25;;;11.80;99.90;;;;;;5103904;28;20087;-70
2023/10/22 05:52:52;;;;;;;1.42;0.90;;;11.80;99.90;;;;;;5121631;28;20044;-67
2023/10/22 05:55:18;;;;;;;1.67;1.00;;;11.80;99.90;;;;;;5125861;28;20046;-68
2023/10/22 05:57:45;;;;;;;2.17;1.10;;;11.80;99.90;;;;;;5124787;28;20418;-67
2023/10/22 06:00:14;;;;;;;1.73;1.00;;;11.80;99.90;;;;;;5125225;28;20042;-69
2023/10/22 06:02:40;;;;;;;1.38;0.90;;;11.80;99.90;;;;;;5124775;28;20115;-68
2023/10/22 06:05:08;;;;;;;1.55;1.00;;;11.80;99.90;;;;;;5122599;28;20051;-68
2023/10/22 06:07:34;;;;;;;1.75;1.02;;;11.80;99.90;;;;;;5125488;28;20044;-68
2023/10/22 06:10:00;;;;;;;2.20;1.20;;;11.80;99.90;;;;;;5105334;28;20051;-67
2023/10/22 06:12:25;;;;;;;1.60;1.15;;;11.80;99.90;;;;;;5109202;28;20047;-68
2023/10/22 06:14:51;;;;;;;1.45;1.00;;;11.70;99.90;;;;;;5122673;28;20101;-67
2023/10/22 06:17:17;;;;;;;1.52;1.10;;;11.80;99.90;;;;;;5124397;28;20051;-69
2023/10/22 06:19:43;;;;;;;1.23;0.75;;;11.80;99.90;;;;;;5125305;28;20044;-69
2023/10/22 06:22:09;;;;;;;1.40;1.00;;;11.80;99.90;;;;;;5122691;28;20463;-69
2023/10/22 06:24:35;;;;;;;1.88;0.80;;;11.70;99.90;;;;;;5125198;28;20035;-68
2023/10/22 06:27:01;;;;;;;1.17;0.88;;;12.20;99.90;;;;;;5105210;28;20116;-69
2023/10/22 06:29:26;;;;;;;1.40;0.90;;;11.70;99.90;;;;;;5124808;28;20056;-69
2023/10/22 06:31:52;;;;;;;1.33;0.80;;;11.70;99.90;;;;;;5084473;28;20083;-68
2023/10/22 06:34:18;;;;;;;1.77;0.90;;;11.60;99.90;;;;;;5096626;28;20051;-67
2023/10/22 06:36:43;;;;;;;1.88;1.10;;;11.50;99.90;;;;;;5124539;28;20122;-68
2023/10/22 06:39:09;;;;;;;3.28;1.50;;;11.40;99.90;;;;;;5107133;28;20048;-68
2023/10/22 06:41:35;;;;;;;1.73;1.00;;;11.30;99.90;;;;;;5124677;28;20035;-69
2023/10/22 06:44:00;;;;;;;2.22;1.25;;;11.30;99.90;;;;;;5106072;28;20567;-69
2023/10/22 06:46:26;;;;;;;1.70;1.00;;;11.20;99.90;;;;;;5086415;28;20044;-68
2023/10/22 06:48:52;;;;;;;2.83;1.50;;;11.20;99.90;;;;;;5115849;28;20042;-68
2023/10/22 06:51:18;;;;;;;2.75;1.50;;;11.20;99.90;;;;;;5124161;28;20048;-68
2023/10/22 06:53:46;;;;;;;6.07;2.10;;;11.10;99.90;;;;;;5124592;28;20075;-69
2023/10/22 06:56:12;;;;;;;3.97;2.40;;;11.20;99.90;;;;;;5122951;28;20313;-69
2023/10/22 06:58:38;;;;;;;4.35;2.20;;;11.20;99.90;;;;;;5123120;28;20050;-69
2023/10/22 07:01:11;;;;;;;4.65;2.50;;;11.20;99.90;;;;;;5122098;28;20250;-69
2023/10/22 07:03:40;;;;;;;4.78;3.10;;;11.20;99.90;;;;;;5105717;28;20095;-68
2023/10/22 07:06:05;;;;;;;4.10;3.00;;;11.20;99.90;;;;;;5122738;28;20118;-69
2023/10/22 07:08:31;;;;;;;5.15;3.42;;;11.20;99.90;;;;;;5123641;28;20043;-68
2023/10/22 07:10:57;;;;;;;4.88;2.80;;;11.20;99.90;;;;;;5111559;28;20051;-69
2023/10/22 07:13:24;;;;;;;3.45;2.17;;;11.20;99.90;;;;;;5101262;28;20395;-69
2023/10/22 07:15:50;;;;;;;4.93;2.70;;;11.20;99.90;;;;;;5116079;28;20043;-69
2023/10/22 07:18:16;;;;;;;4.72;2.20;;;11.10;99.90;;;;;;5107900;28;20043;-68
2023/10/22 07:20:43;;;;;;;3.38;2.45;;;11.10;99.90;;;;;;5124067;28;20048;-69
2023/10/22 07:23:09;;;;;;;4.07;2.40;;;11.10;99.90;;;;;;5101062;28;20032;-68
2023/10/22 07:25:36;;;;;;;3.40;2.17;;;11.20;99.90;;;;;;5091026;28;20082;-67
2023/10/22 07:28:05;;;;;;;3.72;2.28;;;11.20;99.90;;;;;;5120621;28;20096;-66
2023/10/22 07:30:32;;;;;;;5.18;2.03;;;11.20;99.90;;;;;;5102434;28;20093;-69
2023/10/22 07:32:58;;;;;;;3.22;2.50;;;11.20;99.90;;;;;;5122374;27;20043;-69
2023/10/22 07:35:23;;;;;;;4.68;2.47;;;11.20;99.90;;;;;;5113858;28;20395;-68
2023/10/22 07:37:49;;;;;;;4.45;2.50;;;11.30;99.90;;;;;;5106666;28;20051;-70
2023/10/22 07:40:17;;;;;;;4.00;2.63;;;11.30;99.90;;;;;;5100485;28;20127;-68
2023/10/22 07:42:44;;;;;;;6.40;2.85;;;11.40;99.90;;;;;;5090471;28;20044;-69
2023/10/22 07:45:10;;;;;;;2.80;2.20;;;11.30;99.90;;;;;;5099629;28;20475;-69
2023/10/22 07:47:36;;;;;;;3.75;2.78;;;11.40;99.90;;;;;;5102613;28;20040;-69
2023/10/22 07:50:03;;;;;;;4.95;2.63;;;11.40;99.90;;;;;;5104361;28;20074;-68
2023/10/22 07:52:31;;;;;;;4.82;2.70;;;11.40;99.90;;;;;;5075314;28;20103;-69
2023/10/22 07:54:57;;;;;;;5.32;2.90;;;11.40;99.90;;;;;;5084443;28;20505;-69
2023/10/22 07:57:26;;;;;;;4.45;2.70;;;11.40;99.90;;;;;;5106370;28;20050;-68
2023/10/22 07:59:52;;;;;;;6.93;3.50;;;11.40;99.90;;;;;;5102409;28;20044;-68
2023/10/22 08:02:18;;;;;;;5.53;2.92;;;11.40;99.90;;;;;;5119664;28;20051;-67
2023/10/22 08:04:44;;;;;;;5.20;2.78;;;11.40;99.90;;;;;;5096763;28;20039;-68
2023/10/22 08:07:10;;;;;;;4.78;2.67;;;11.50;99.90;;;;;;5118508;28;20475;-68
2023/10/22 08:09:35;;;;;;;4.18;2.75;;;11.50;99.90;;;;;;5103639;28;20040;-69
2023/10/22 08:12:01;;;;;;;4.95;3.13;;;11.50;99.90;;;;;;5084015;28;20040;-68
2023/10/22 08:14:27;;;;;;;4.05;2.95;;;11.50;99.90;;;;;;5104922;28;20051;-69
2023/10/22 08:16:53;;;;;;;5.30;3.22;;;11.60;99.90;;;;;;5072571;28;20596;-68
2023/10/22 08:19:19;;;;;;;4.30;2.83;;;11.70;99.90;;;;;;5119970;27;20155;-69
2023/10/22 08:21:44;;;;;;;4.40;2.60;;;11.70;99.90;;;;;;5103782;28;20048;-69
2023/10/22 08:24:10;;;;;;;5.20;3.25;;;11.70;99.90;;;;;;5108642;28;20074;-69
2023/10/22 08:26:36;;;;;;;5.47;3.20;;;11.70;99.90;;;;;;5103102;28;20507;-69
2023/10/22 08:29:02;;;;;;;4.78;3.22;;;11.80;99.90;;;;;;5101191;28;20053;-69
2023/10/22 08:31:27;;;;;;;6.00;3.47;;;11.80;99.90;;;;;;5078742;28;20104;-68
2023/10/22 08:33:53;;;;;;;6.05;4.10;;;11.90;99.90;;;;;;5104082;28;20044;-68
2023/10/22 08:36:19;;;;;;;6.88;3.80;;;11.90;99.90;;;;;;5099012;28;20043;-67
2023/10/22 08:38:45;;;;;;;4.80;3.55;;;11.90;99.90;;;;;;5088476;28;20576;-69
2023/10/22 08:41:19;;;;;;;5.20;3.88;;;11.90;99.90;;;;;;5113738;28;20039;-68
2023/10/22 08:43:47;;;;;;;5.80;3.63;;;11.90;99.90;;;;;;5107347;28;20051;-68
2023/10/22 08:46:13;;;;;;;5.65;3.90;;;12.00;99.90;;;;;;5102514;28;20564;-69
2023/10/22 08:48:40;;;;;;;5.82;3.38;;;12.00;99.90;;;;;;5101549;28;20102;-69
2023/10/22 08:51:07;;;;;;;6.32;3.45;;;12.00;99.90;;;;;;5112680;28;20391;-69
2023/10/22 08:53:33;;;;;;;5.18;3.47;;;12.10;99.90;;;;;;5082142;28;20069;-68
2023/10/22 08:56:00;;;;;;;8.07;3.97;;;12.10;99.90;;;;;;5102430;28;20032;-70
2023/10/22 08:58:26;;;;;;;5.93;3.25;;;12.10;99.90;;;;;;5101077;28;20047;-68
2023/10/22 09:00:52;;;;;;;4.85;2.75;;;12.10;99.90;;;;;;5090371;28;20054;-68
2023/10/22 09:03:20;;;;;;;5.40;2.90;;;12.10;99.90;;;;;;5116163;28;20066;-69
2023/10/22 09:05:46;;;;;;;4.88;3.30;;;12.20;99.90;;;;;;5117642;27;20031;-69
2023/10/22 09:08:13;;;;;;;6.05;3.15;;;12.30;99.90;;;;;;5096784;28;20051;-69
2023/10/22 09:10:39;;;;;;;4.70;2.75;;;12.30;99.90;;;;;;5127215;27;20035;-69
2023/10/22 09:13:22;;;;;;;3.67;2.88;;;12.30;99.90;;;;;;5105146;28;20079;-69
2023/10/22 09:15:54;;;;;;;3.53;2.80;;;12.30;99.90;;;;;;5104160;28;20452;-68
2023/10/22 09:18:19;;;;;;;4.55;2.83;;;12.50;99.90;;;;;;5115174;28;20059;-68
2023/10/22 09:20:46;;;;;;;3.50;2.50;;;12.60;99.90;;;;;;5070924;28;20044;-69
2023/10/22 09:23:20;;;;;;;4.88;2.53;;;12.60;99.90;;;;;;5087717;28;20038;-69
2023/10/22 09:25:54;;;;;;;4.50;2.22;;;12.60;99.90;;;;;;5087897;28;20058;-68
2023/10/22 09:28:28;;;;;;;3.55;2.15;;;12.50;99.90;;;;;;5085869;28;20047;-69
2023/10/22 09:31:02;;;;;;;4.40;2.55;;;12.40;99.90;;;;;;5094933;28;20060;-68
2023/10/22 09:33:39;;;;;;;4.55;2.58;;;12.60;99.90;;;;;;5119838;27;20041;-68
2023/10/22 09:36:07;;;;;;;3.58;2.10;;;12.90;99.90;;;;;;5086671;28;20028;-68
2023/10/22 09:38:52;;;;;;;3.92;2.13;;;12.90;99.90;;;;;;5103219;28;20051;-68
2023/10/22 09:41:29;;;;;;;4.80;2.25;;;12.80;99.90;;;;;;5092943;28;20429;-69
2023/10/22 09:43:56;;;;;;;;;;;12.80;99.90;;;;;;5101695;28;20052;-68
2023/10/22 09:46:25;;;;;;;3.95;2.10;;;12.90;99.90;;;;;;5103801;28;19952;-67
2023/10/22 09:48:51;;;;;;;4.25;2.03;;;13.40;99.90;;;;;;5083599;28;20047;-68
2023/10/22 09:51:18;;;;;;;3.42;2.00;;;13.50;99.90;;;;;;5085004;28;20044;-68
2023/10/22 09:53:54;;;;;;;3.60;2.00;;;13.60;99.90;;;;;;5068673;28;20050;-68
2023/10/22 09:56:21;;;;;;;;;;;13.80;99.90;;;;;;5084123;28;20040;-68
2023/10/22 09:58:48;;;;;;;;;;;14.10;99.90;;;;;;5109250;28;19926;-67
2023/10/22 10:01:14;;;;;;;4.28;2.10;;;14.20;99.90;;;;;;5100917;28;19959;-67
2023/10/22 10:03:41;;;;;;;3.75;2.00;;;14.20;99.90;;;;;;5090751;28;20043;-67
2023/10/22 10:06:08;;;;;;;4.22;1.90;;;13.90;99.90;;;;;;5105321;28;20035;-67
2023/10/22 10:08:40;;;;;;;4.10;2.20;;;13.80;99.90;;;;;;5111373;28;20047;-68
2023/10/22 10:11:08;;;;;;;2.65;1.75;;;14.20;99.90;;;;;;5084123;28;20047;-68
2023/10/22 10:13:37;;;;;;;4.05;2.20;;;14.60;99.90;;;;;;5066017;28;20040;-69
2023/10/22 10:16:07;;;;;;;4.30;1.90;;;14.80;99.90;;;;;;5102732;28;20048;-67
2023/10/22 10:18:58;;;;;;;3.15;2.10;;;14.90;99.90;;;;;;5101080;28;20032;-67
2023/10/22 10:21:39;;;;;;;2.95;1.60;;;14.60;99.90;;;;;;5071777;28;20082;-68
2023/10/22 10:24:14;;;;;;;4.32;1.77;;;14.50;99.90;;;;;;5098298;28;20050;-69
2023/10/22 10:26:40;;;;;;;2.83;1.83;;;14.40;99.90;;;;;;5115527;28;20050;-69
2023/10/22 10:29:06;;;;;;;3.70;1.73;;;14.60;99.90;;;;;;5073980;28;20032;-69
2023/10/22 10:31:31;;;;;;;2.75;2.03;;;15.00;99.90;;;;;;5106381;28;20059;-64
2023/10/22 10:34:02;;;;;;;2.60;1.88;;;15.10;99.90;;;;;;5105830;28;20044;-66
2023/10/22 10:36:28;;;;;;;3.08;2.05;;;15.30;99.90;;;;;;5102069;28;20051;-66
2023/10/22 10:39:14;;;;;;;2.85;1.95;;;15.40;99.90;;;;;;5100936;28;20624;-65
2023/10/22 10:41:53;;;;;;;3.65;2.00;;;15.30;99.90;;;;;;5102726;28;20149;-66
2023/10/22 10:44:19;;;;;;;3.53;2.10;;;15.10;99.90;;;;;;5100430;28;20149;-65
2023/10/22 10:46:44;;;;;;;2.80;2.17;;;14.70;99.90;;;;;;5101954;28;20486;-68
2023/10/22 10:49:10;;;;;;;3.35;2.00;;;14.90;99.90;;;;;;5101131;28;20441;-66
2023/10/22 10:51:36;;;;;;;2.47;1.88;;;15.10;99.90;;;;;;5115193;28;20055;-67
2023/10/22 10:54:08;;;;;;;3.67;2.13;;;15.20;99.90;;;;;;5078972;28;20046;-67
2023/10/22 10:56:49;;;;;;;3.92;2.22;;;15.10;99.90;;;;;;5106219;28;20068;-66
2023/10/22 10:59:29;;;;;;;3.72;2.10;;;14.50;99.90;;;;;;5108897;28;20048;-66
2023/10/22 11:02:10;;;;;;;3.22;2.30;;;14.10;99.90;;;;;;5113224;28;20458;-66
2023/10/22 11:04:37;;;;;;;3.58;2.20;;;13.70;99.90;;;;;;5100789;28;20051;-67
2023/10/22 11:07:04;;;;;;;4.15;2.50;;;13.50;99.90;;;;;;5097012;28;20123;-66
2023/10/22 11:09:37;;;;;;;5.38;2.90;;;13.30;99.90;;;;;;5108489;28;20042;-66
2023/10/22 11:12:04;;;;;;;4.50;3.20;;;13.30;99.90;;;;;;5079962;28;20514;-66
2023/10/22 11:14:35;;;;;;;3.83;2.35;;;13.20;99.90;;;;;;5091133;28;20048;-66
2023/10/22 11:17:02;;;;;;;4.63;2.80;;;13.20;99.90;;;;;;5101469;28;20118;-67
2023/10/22 11:19:30;;;;;;;4.10;2.85;;;13.10;99.90;;;;;;5066718;28;20036;-67
2023/10/22 11:21:56;;;;;;;4.15;2.45;;;13.10;99.90;;;;;;5104665;28;20031;-67
2023/10/22 11:24:29;;;;;;;5.07;2.60;;;13.10;99.90;;;;;;5097300;28;20032;-67
2023/10/22 11:26:57;;;;;;;6.90;2.38;;;13.00;99.90;;;;;;5099257;28;20032;-67
2023/10/22 11:29:23;;;;;;;3.50;2.60;;;13.00;99.90;;;;;;5088599;28;20126;-66
2023/10/22 11:31:53;;;;;;;4.82;2.70;;;13.00;99.90;;;;;;5108975;28;20088;-68
2023/10/22 11:34:20;;;;;;;4.93;2.65;;;12.90;99.90;;;;;;5126172;27;20051;-68
2023/10/22 11:36:46;;;;;;;4.22;2.70;;;12.90;99.90;;;;;;5123674;27;20069;-68
2023/10/22 11:39:17;;;;;;;3.15;2.33;;;12.90;99.90;;;;;;5102144;28;20093;-68
2023/10/22 11:41:43;;;;;;;4.90;2.40;;;12.80;99.90;;;;;;5125121;27;20047;-68
2023/10/22 11:44:10;;;;;;;4.35;2.47;;;12.80;99.90;;;;;;5109582;27;20115;-68
2023/10/22 11:46:40;;;;;;;4.40;2.30;;;12.80;99.90;;;;;;5120701;27;20031;-68
2023/10/22 11:49:06;;;;;;;2.47;1.50;;;12.80;99.90;;;;;;5106156;28;20101;-66
2023/10/22 11:51:45;;;;;;;2.25;1.60;;;12.90;99.90;;;;;;5101172;28;20502;-68
2023/10/22 11:54:10;;;;;;;4.38;1.40;;;13.00;99.90;;;;;;5084340;28;20032;-65
2023/10/22 11:56:37;;;;;;;4.65;1.90;;;13.00;99.90;;;;;;5074707;28;20050;-67
2023/10/22 11:59:04;;;;;;;3.38;1.45;;;13.00;99.90;;;;;;5112740;28;20067;-67
2023/10/22 12:01:30;;;;;;;3.22;1.40;;;13.10;99.90;;;;;;5081627;28;20036;-66
2023/10/22 12:03:56;;;;;;;2.67;1.35;;;13.10;99.90;;;;;;5105647;28;20429;-67
2023/10/22 12:06:22;;;;;;;2.47;1.30;;;13.10;99.90;;;;;;5075901;28;20043;-67
2023/10/22 12:08:48;;;;;;;5.70;1.70;;;13.10;99.90;;;;;;5077241;28;20112;-66
2023/10/22 12:11:14;;;;;;;3.50;1.60;;;13.10;99.90;;;;;;5123024;27;20043;-67
2023/10/22 12:13:39;;;;;;;1.98;1.48;;;13.00;99.90;;;;;;5102834;28;20466;-67
2023/10/22 12:16:05;;;;;;;2.35;1.33;;;13.00;99.90;;;;;;5102791;28;20052;-67
2023/10/22 12:18:31;;;;;;;3.78;1.58;;;13.00;99.90;;;;;;5106440;28;20031;-68
2023/10/22 12:20:57;;;;;;;3.85;1.67;;;13.00;99.90;;;;;;5101221;28;20095;-67
2023/10/22 12:23:24;;;;;;;2.42;1.38;;;12.90;99.90;;;;;;5101256;28;20051;-67
2023/10/22 12:25:50;;;;;;;3.72;1.60;;;12.90;99.90;;;;;;5083619;28;20043;-68
2023/10/22 12:28:16;;;;;;;2.03;1.27;;;12.80;99.90;;;;;;5083878;28;20642;-67
2023/10/22 12:30:41;;;;;;;3.25;1.30;;;12.80;99.90;;;;;;5099910;28;20108;-68
2023/10/22 12:33:10;;;;;;;3.75;1.40;;;12.90;99.90;;;;;;5103242;28;20119;-67
2023/10/22 12:35:39;;;;;;;3.38;1.00;;;12.90;99.90;;;;;;5100274;28;20035;-68
2023/10/22 12:38:05;;;;;;;2.17;1.30;;;12.90;99.90;;;;;;5083349;28;20461;-68
2023/10/22 12:40:31;;;;;;;2.00;0.90;;;12.90;99.90;;;;;;5113212;28;20032;-68
2023/10/22 12:42:56;;;;;;;2.47;0.88;;;12.90;99.90;;;;;;5105788;28;20067;-68
2023/10/22 12:45:22;;;;;;;2.58;1.00;;;12.90;99.90;;;;;;5095897;28;20068;-68
2023/10/22 12:47:48;;;;;;;3.03;0.63;;;13.00;99.90;;;;;;5082591;28;20595;-68